createdAt,value
2023-05-19T00:01:25.543Z,99.90
2023-05-19T00:03:55.288Z,99.90
2023-05-19T00:06:27.560Z,99.90
2023-05-19T00:09:10.396Z,99.90
2023-05-19T00:11:39.400Z,99.90
2023-05-19T00:14:09.798Z,99.90
2023-05-19T00:16:38.317Z,99.90
2023-05-19T00:19:06.909Z,99.90
2023-05-19T00:21:34.344Z,99.90
2023-05-19T00:24:01.928Z,99.90
2023-05-19T00:26:29.426Z,99.90
2023-05-19T00:28:56.852Z,99.90
2023-05-19T00:31:24.757Z,99.90
2023-05-19T00:33:52.656Z,99.90
2023-05-19T00:36:20.279Z,99.90
2023-05-19T00:38:47.731Z,99.90
2023-05-19T00:41:15.289Z,99.90
2023-05-19T00:43:42.830Z,99.90
2023-05-19T00:46:11.412Z,99.90
2023-05-19T00:48:38.895Z,99.90
2023-05-19T00:51:06.894Z,99.90
2023-05-19T00:53:35.265Z,99.90
2023-05-19T00:56:04.111Z,99.90
2023-05-19T00:58:33.518Z,99.90
2023-05-19T01:01:05.369Z,99.90
2023-05-19T01:03:37.288Z,99.90
2023-05-19T01:06:05.418Z,99.90
2023-05-19T01:08:37.557Z,99.90
2023-05-19T01:11:08.669Z,99.90
2023-05-19T01:13:38.593Z,99.90
2023-05-19T01:16:18.447Z,99.90
2023-05-19T01:18:58.882Z,99.90
2023-05-19T01:21:44.705Z,99.90
2023-05-19T01:24:49.861Z,99.90
2023-05-19T01:28:06.915Z,99.90
2023-05-19T01:30:42.674Z,99.90
2023-05-19T01:33:14.433Z,99.90
2023-05-19T01:35:44.344Z,99.90
2023-05-19T01:38:13.498Z,99.90
2023-05-19T01:40:42.301Z,99.90
2023-05-19T01:43:13.221Z,99.90
2023-05-19T01:45:41.051Z,99.90
2023-05-19T01:48:10.803Z,99.90
2023-05-19T01:50:39.436Z,99.90
2023-05-19T01:53:07.046Z,99.90
2023-05-19T01:55:38.895Z,99.90
2023-05-19T01:58:37.022Z,99.90
2023-05-19T02:01:20.673Z,99.90
2023-05-19T02:04:25.204Z,99.90
2023-05-19T02:07:17.143Z,99.90
2023-05-19T02:09:50.530Z,99.90
2023-05-19T02:12:26.186Z,99.90
2023-05-19T02:15:21.997Z,99.90
2023-05-19T02:17:54.707Z,99.90
2023-05-19T02:20:25.211Z,99.90
2023-05-19T02:22:52.754Z,99.90
2023-05-19T02:25:21.824Z,99.90
2023-05-19T02:27:49.445Z,99.90
2023-05-19T02:30:17.011Z,99.90
2023-05-19T02:32:47.015Z,99.90
2023-05-19T02:35:15.020Z,99.90
2023-05-19T02:37:42.518Z,99.90
2023-05-19T02:40:10.393Z,99.90
2023-05-19T02:42:37.796Z,99.90
2023-05-19T02:45:05.756Z,99.90
2023-05-19T02:47:34.729Z,99.90
2023-05-19T02:50:05.104Z,99.90
2023-05-19T02:52:32.474Z,99.90
2023-05-19T02:55:00.107Z,99.90
2023-05-19T02:57:27.593Z,99.90
2023-05-19T02:59:55.062Z,99.90
2023-05-19T03:02:22.539Z,99.90
2023-05-19T03:04:50.183Z,99.90
2023-05-19T03:07:17.910Z,99.90
2023-05-19T03:09:45.404Z,99.90
2023-05-19T03:12:12.870Z,99.90
2023-05-19T03:14:40.483Z,99.90
2023-05-19T03:17:08.576Z,99.90
2023-05-19T03:19:38.750Z,99.90
2023-05-19T03:22:06.622Z,99.90
2023-05-19T03:24:34.204Z,99.90
2023-05-19T03:27:06.436Z,99.90
2023-05-19T03:29:33.987Z,99.90
2023-05-19T03:32:01.991Z,99.90
2023-05-19T03:34:29.486Z,99.90
2023-05-19T03:36:56.916Z,99.90
2023-05-19T03:39:24.484Z,99.90
2023-05-19T03:41:52.038Z,99.90
2023-05-19T03:44:22.050Z,99.90
2023-05-19T03:46:49.529Z,99.90
2023-05-19T03:49:17.296Z,99.90
2023-05-19T03:51:44.731Z,99.90
2023-05-19T03:54:12.313Z,99.90
2023-05-19T03:56:41.355Z,99.90
2023-05-19T03:59:10.821Z,99.90
2023-05-19T04:01:38.289Z,99.90
2023-05-19T04:04:06.045Z,99.90
2023-05-19T04:06:34.221Z,99.90
2023-05-19T04:09:02.814Z,99.90
2023-05-19T04:11:30.283Z,99.90
2023-05-19T04:13:57.806Z,99.90
2023-05-19T04:16:25.624Z,99.90
2023-05-19T04:18:53.266Z,99.90
2023-05-19T04:21:22.650Z,99.90
2023-05-19T04:23:50.288Z,99.90
2023-05-19T04:26:18.384Z,99.90
2023-05-19T04:28:46.235Z,99.90
2023-05-19T04:31:14.544Z,99.90
2023-05-19T04:33:42.338Z,99.90
2023-05-19T04:36:11.647Z,99.90
2023-05-19T04:38:40.195Z,99.90
2023-05-19T04:41:11.106Z,99.90
2023-05-19T04:43:45.037Z,99.90
2023-05-19T04:46:14.531Z,99.90
2023-05-19T04:48:42.123Z,99.90
2023-05-19T04:51:09.628Z,99.90
2023-05-19T04:53:37.107Z,99.90
2023-05-19T04:56:05.273Z,99.90
2023-05-19T04:58:33.588Z,99.90
2023-05-19T05:01:01.214Z,99.90
2023-05-19T05:03:28.820Z,99.90
2023-05-19T05:05:57.036Z,99.90
2023-05-19T05:08:24.469Z,99.90
2023-05-19T05:10:53.270Z,99.90
2023-05-19T05:13:24.804Z,99.90
2023-05-19T05:15:52.679Z,99.90
2023-05-19T05:18:20.792Z,99.90
2023-05-19T05:20:48.705Z,99.90
2023-05-19T05:23:16.982Z,99.90
2023-05-19T05:25:45.124Z,99.90
2023-05-19T05:28:12.672Z,99.90
2023-05-19T05:30:41.599Z,99.90
2023-05-19T05:33:09.981Z,99.90
2023-05-19T05:35:37.710Z,99.90
2023-05-19T05:38:05.122Z,98.70
2023-05-19T05:40:32.641Z,95.90
2023-05-19T05:43:00.329Z,93.50
2023-05-19T05:45:27.779Z,92.40
2023-05-19T05:47:55.775Z,91.00
2023-05-19T05:50:26.634Z,90.10
2023-05-19T05:52:56.299Z,89.00
2023-05-19T05:55:24.422Z,91.00
2023-05-19T05:57:52.017Z,91.20
2023-05-19T06:00:20.093Z,90.50
2023-05-19T06:02:53.591Z,88.70
2023-05-19T06:05:21.417Z,84.00
2023-05-19T06:07:48.893Z,87.00
2023-05-19T06:10:19.309Z,86.70
2023-05-19T06:12:46.891Z,87.30
2023-05-19T06:15:14.481Z,83.90
2023-05-19T06:17:41.993Z,83.50
2023-05-19T06:20:10.415Z,82.20
2023-05-19T06:22:37.834Z,82.30
2023-05-19T06:25:06.654Z,81.20
2023-05-19T06:27:34.876Z,80.60
2023-05-19T06:30:02.944Z,81.60
2023-05-19T06:32:30.530Z,79.80
2023-05-19T06:35:01.367Z,79.60
2023-05-19T06:37:28.800Z,79.20
2023-05-19T06:39:56.446Z,76.90
2023-05-19T06:42:25.045Z,76.10
2023-05-19T06:44:53.342Z,74.60
2023-05-19T06:47:21.234Z,78.20
2023-05-19T06:49:51.639Z,77.70
2023-05-19T06:52:19.172Z,75.70
2023-05-19T06:54:46.602Z,78.30
2023-05-19T06:57:14.052Z,78.70
2023-05-19T06:59:43.595Z,78.90
2023-05-19T07:02:11.769Z,77.40
2023-05-19T07:04:40.131Z,74.70
2023-05-19T07:07:07.680Z,77.90
2023-05-19T07:09:36.494Z,74.80
2023-05-19T07:12:04.072Z,76.10
2023-05-19T07:14:31.887Z,74.30
2023-05-19T07:16:59.432Z,75.00
2023-05-19T07:19:27.089Z,73.90
2023-05-19T07:21:55.261Z,72.20
2023-05-19T07:24:23.115Z,73.60
2023-05-19T07:26:50.522Z,74.70
2023-05-19T07:29:17.995Z,72.60
2023-05-19T07:31:45.593Z,72.40
2023-05-19T07:34:13.127Z,71.10
2023-05-19T07:36:41.725Z,73.80
2023-05-19T07:39:09.309Z,73.40
2023-05-19T07:41:36.816Z,71.50
2023-05-19T07:44:08.090Z,70.50
2023-05-19T07:46:36.250Z,72.90
2023-05-19T07:49:04.318Z,75.20
2023-05-19T07:51:32.016Z,74.20
2023-05-19T07:53:59.612Z,74.00
2023-05-19T07:56:27.635Z,74.30
2023-05-19T07:58:55.164Z,75.10
2023-05-19T08:01:22.732Z,75.50
2023-05-19T08:03:50.399Z,72.40
2023-05-19T08:06:18.233Z,70.50
2023-05-19T08:08:46.612Z,72.30
2023-05-19T08:11:14.097Z,73.20
2023-05-19T08:13:45.504Z,70.20
2023-05-19T08:16:12.949Z,73.60
2023-05-19T08:18:40.498Z,72.80
2023-05-19T08:21:10.208Z,75.00
2023-05-19T08:23:38.166Z,75.10
2023-05-19T08:26:06.169Z,76.60
2023-05-19T08:28:33.649Z,76.30
2023-05-19T08:31:01.339Z,78.60
2023-05-19T08:33:28.818Z,79.30
2023-05-19T08:35:59.807Z,75.00
2023-05-19T08:38:27.353Z,74.80
2023-05-19T08:40:55.109Z,78.20
2023-05-19T08:43:22.860Z,76.90
2023-05-19T08:45:50.659Z,79.30
2023-05-19T08:48:19.569Z,79.20
2023-05-19T08:51:14.274Z,81.40
2023-05-19T08:53:46.654Z,83.90
2023-05-19T08:56:22.130Z,85.40
2023-05-19T08:58:52.711Z,84.50
2023-05-19T09:01:22.841Z,86.50
2023-05-19T09:03:50.911Z,84.20
2023-05-19T09:06:18.572Z,85.50
2023-05-19T09:08:47.269Z,87.60
2023-05-19T09:11:14.993Z,82.70
2023-05-19T09:13:42.435Z,85.40
2023-05-19T09:16:10.088Z,83.40
2023-05-19T09:18:41.134Z,87.50
2023-05-19T09:21:11.430Z,89.70
2023-05-19T09:23:38.851Z,87.10
2023-05-19T09:26:09.422Z,87.40
2023-05-19T09:28:38.358Z,88.10
2023-05-19T09:31:08.584Z,88.10
2023-05-19T09:33:38.831Z,88.10
2023-05-19T09:36:08.857Z,87.60
2023-05-19T09:38:37.650Z,85.50
2023-05-19T09:41:07.661Z,87.50
2023-05-19T09:43:36.645Z,86.90
2023-05-19T09:46:28.571Z,86.10
2023-05-19T09:48:59.096Z,88.10
2023-05-19T09:51:26.960Z,85.70
2023-05-19T09:53:54.549Z,87.30
2023-05-19T09:56:26.406Z,89.10
2023-05-19T09:58:53.951Z,87.80
2023-05-19T10:01:24.309Z,87.40
2023-05-19T10:03:53.834Z,89.70
2023-05-19T10:06:22.300Z,88.90
2023-05-19T10:08:52.098Z,89.50
2023-05-19T10:11:20.010Z,87.00
2023-05-19T10:13:50.722Z,87.00
2023-05-19T10:16:21.019Z,90.40
2023-05-19T10:18:51.341Z,88.10
2023-05-19T10:21:19.083Z,88.90
2023-05-19T10:23:46.529Z,90.20
2023-05-19T10:26:14.571Z,88.70
2023-05-19T10:28:45.187Z,87.90
2023-05-19T10:31:19.754Z,90.00
2023-05-19T10:34:14.458Z,87.90
2023-05-19T10:36:49.030Z,88.50
2023-05-19T10:39:35.907Z,86.00
2023-05-19T10:42:25.108Z,90.30
2023-05-19T10:45:14.026Z,87.20
2023-05-19T10:47:47.744Z,86.50
2023-05-19T10:50:15.873Z,88.30
2023-05-19T10:52:44.868Z,89.70
2023-05-19T10:55:17.972Z,88.50
2023-05-19T10:57:57.476Z,87.20
2023-05-19T11:00:30.123Z,92.20
2023-05-19T11:03:14.535Z,90.50
2023-05-19T11:05:45.702Z,87.40
2023-05-19T11:08:13.658Z,90.40
2023-05-19T11:10:44.922Z,89.00
2023-05-19T11:13:22.756Z,90.50
2023-05-19T11:15:50.558Z,89.80
2023-05-19T11:18:19.377Z,90.40
2023-05-19T11:20:58.573Z,90.10
2023-05-19T11:23:26.717Z,88.30
2023-05-19T11:25:54.701Z,90.30
2023-05-19T11:28:28.425Z,89.90
2023-05-19T11:30:59.226Z,90.10
2023-05-19T11:33:30.343Z,87.30
2023-05-19T11:35:58.684Z,90.00
2023-05-19T11:38:26.979Z,91.00
2023-05-19T11:40:55.280Z,90.60
2023-05-19T11:43:26.744Z,90.10
2023-05-19T11:45:55.410Z,90.40
2023-05-19T11:48:23.321Z,90.30
2023-05-19T11:50:51.667Z,90.90
2023-05-19T11:53:21.836Z,90.80
2023-05-19T11:55:49.846Z,90.90
2023-05-19T11:58:17.721Z,90.10
2023-05-19T12:00:48.761Z,91.10
2023-05-19T12:03:17.716Z,90.20
2023-05-19T12:05:48.612Z,90.50
2023-05-19T12:08:19.610Z,90.20
2023-05-19T12:10:52.590Z,90.10
2023-05-19T12:13:21.409Z,88.70
2023-05-19T12:15:51.099Z,90.20
2023-05-19T12:18:19.717Z,89.40
2023-05-19T12:20:47.538Z,89.80
2023-05-19T12:23:15.236Z,87.70
2023-05-19T12:25:42.775Z,88.60
2023-05-19T12:28:10.313Z,90.80
2023-05-19T12:30:38.117Z,90.90
2023-05-19T12:33:06.246Z,91.60
2023-05-19T12:35:34.306Z,90.50
2023-05-19T12:38:05.910Z,88.90
2023-05-19T12:40:39.743Z,91.60
2023-05-19T12:43:08.100Z,90.00
2023-05-19T12:45:37.381Z,91.40
2023-05-19T12:48:11.681Z,90.40
2023-05-19T12:50:39.524Z,88.40
2023-05-19T12:53:11.078Z,90.00
2023-05-19T12:55:45.782Z,88.60
2023-05-19T12:58:13.646Z,90.00
2023-05-19T13:00:46.761Z,90.80
2023-05-19T13:03:21.307Z,90.40
2023-05-19T13:05:50.947Z,91.00
2023-05-19T13:08:20.707Z,91.00
2023-05-19T13:10:49.892Z,91.00
2023-05-19T13:13:17.662Z,88.40
2023-05-19T13:15:46.036Z,87.70
2023-05-19T13:18:14.509Z,89.90
2023-05-19T13:20:44.751Z,91.20
2023-05-19T13:23:13.097Z,91.30
2023-05-19T13:25:42.280Z,90.70
2023-05-19T13:28:10.603Z,91.20
2023-05-19T13:30:42.149Z,90.20
2023-05-19T13:33:09.792Z,90.50
2023-05-19T13:35:38.008Z,91.10
2023-05-19T13:38:07.036Z,89.00
2023-05-19T13:40:35.309Z,90.40
2023-05-19T13:43:04.528Z,90.10
2023-05-19T13:45:32.485Z,90.50
2023-05-19T13:48:00.270Z,90.40
2023-05-19T13:50:28.024Z,89.90
2023-05-19T13:52:55.546Z,90.20
2023-05-19T13:55:23.874Z,89.70
2023-05-19T13:57:51.480Z,90.70
2023-05-19T14:00:19.572Z,91.10
2023-05-19T14:02:47.416Z,91.10
2023-05-19T14:05:15.065Z,90.70
2023-05-19T14:07:42.813Z,91.30
2023-05-19T14:10:10.765Z,89.70
2023-05-19T14:12:55.112Z,90.40
2023-05-19T14:15:26.407Z,90.60
2023-05-19T14:17:53.943Z,91.60
2023-05-19T14:20:21.555Z,91.20
2023-05-19T14:22:49.086Z,91.40
2023-05-19T14:25:16.514Z,91.20
2023-05-19T14:27:44.023Z,91.30
2023-05-19T14:30:12.056Z,91.90
2023-05-19T14:32:39.660Z,91.70
2023-05-19T14:35:07.679Z,92.20
2023-05-19T14:37:35.160Z,92.30
2023-05-19T14:40:03.750Z,92.50
2023-05-19T14:42:31.388Z,91.30
2023-05-19T14:44:58.929Z,92.10
2023-05-19T14:47:27.386Z,92.20
2023-05-19T14:49:55.010Z,91.90
2023-05-19T14:52:23.077Z,91.70
2023-05-19T14:54:50.639Z,92.00
2023-05-19T14:57:18.022Z,92.30
2023-05-19T14:59:45.471Z,93.00
2023-05-19T15:02:12.996Z,92.40
2023-05-19T15:04:40.472Z,92.20
2023-05-19T15:07:10.666Z,92.20
2023-05-19T15:09:38.596Z,92.30
2023-05-19T15:12:06.402Z,93.40
2023-05-19T15:14:33.832Z,92.40
2023-05-19T15:17:04.037Z,92.70
2023-05-19T15:19:31.566Z,93.70
2023-05-19T15:21:59.059Z,93.00
2023-05-19T15:24:27.256Z,93.10
2023-05-19T15:26:56.743Z,92.30
2023-05-19T15:29:24.450Z,92.80
2023-05-19T15:31:52.561Z,92.30
2023-05-19T15:34:23.662Z,93.20
2023-05-19T15:36:51.340Z,93.40
2023-05-19T15:39:19.061Z,93.30
2023-05-19T15:41:46.814Z,92.80
2023-05-19T15:44:14.862Z,92.80
2023-05-19T15:46:42.538Z,92.80
2023-05-19T15:49:10.102Z,94.00
2023-05-19T15:51:40.964Z,92.80
2023-05-19T15:54:08.550Z,92.80
2023-05-19T15:56:36.193Z,92.60
2023-05-19T15:59:03.886Z,92.50
2023-05-19T16:01:31.950Z,93.10
2023-05-19T16:04:00.727Z,93.40
2023-05-19T16:06:28.273Z,92.70
2023-05-19T16:08:56.058Z,93.60
2023-05-19T16:11:23.745Z,93.40
2023-05-19T16:13:51.209Z,93.20
2023-05-19T16:16:19.082Z,92.90
2023-05-19T16:18:46.713Z,93.40
2023-05-19T16:21:14.221Z,92.80
2023-05-19T16:23:43.398Z,92.80
2023-05-19T16:26:10.962Z,92.80
2023-05-19T16:28:38.576Z,93.20
2023-05-19T16:31:07.386Z,93.30
2023-05-19T16:33:34.949Z,93.30
2023-05-19T16:36:02.584Z,93.70
2023-05-19T16:38:33.072Z,93.00
2023-05-19T16:41:00.728Z,93.20
2023-05-19T16:43:28.219Z,93.60
2023-05-19T16:45:55.779Z,93.60
2023-05-19T16:48:23.188Z,93.70
2023-05-19T16:50:50.653Z,93.80
2023-05-19T16:53:18.174Z,94.40
2023-05-19T16:55:45.803Z,93.60
2023-05-19T16:58:13.373Z,94.10
2023-05-19T17:00:41.098Z,93.90
2023-05-19T17:03:08.598Z,94.70
2023-05-19T17:05:38.423Z,94.70
2023-05-19T17:08:06.456Z,94.20
2023-05-19T17:10:34.263Z,94.20
2023-05-19T17:13:02.325Z,94.30
2023-05-19T17:15:29.883Z,94.60
2023-05-19T17:17:57.382Z,94.20
2023-05-19T17:20:25.047Z,94.50
2023-05-19T17:22:52.953Z,94.90
2023-05-19T17:25:20.503Z,95.20
2023-05-19T17:27:49.086Z,94.80
2023-05-19T17:30:17.245Z,95.30
2023-05-19T17:32:44.829Z,95.00
2023-05-19T17:35:14.446Z,95.10
2023-05-19T17:37:42.106Z,95.40
2023-05-19T17:40:10.248Z,96.10
2023-05-19T17:42:37.690Z,95.80
2023-05-19T17:45:07.741Z,95.60
2023-05-19T17:47:35.331Z,95.50
2023-05-19T17:50:02.804Z,95.60
2023-05-19T17:52:30.489Z,95.80
2023-05-19T17:54:58.261Z,96.10
2023-05-19T17:57:28.304Z,96.30
2023-05-19T17:59:56.230Z,96.60
2023-05-19T18:02:23.941Z,96.80
2023-05-19T18:04:51.648Z,97.30
2023-05-19T18:07:20.215Z,97.90
2023-05-19T18:09:50.810Z,96.90
2023-05-19T18:12:18.448Z,96.70
2023-05-19T18:14:46.205Z,97.40
2023-05-19T18:17:13.673Z,97.50
2023-05-19T18:19:41.305Z,97.00
2023-05-19T18:22:13.207Z,97.80
2023-05-19T18:24:41.201Z,98.30
2023-05-19T18:27:09.261Z,98.00
2023-05-19T18:29:37.229Z,98.80
2023-05-19T18:32:06.708Z,98.80
2023-05-19T18:34:34.273Z,99.10
2023-05-19T18:37:02.205Z,99.70
2023-05-19T18:39:29.803Z,99.70
2023-05-19T18:41:57.989Z,99.90
2023-05-19T18:44:26.104Z,99.90
2023-05-19T18:46:54.168Z,99.90
2023-05-19T18:49:25.435Z,99.60
2023-05-19T18:51:53.091Z,99.90
2023-05-19T18:54:21.904Z,99.90
2023-05-19T18:56:50.351Z,99.90
2023-05-19T18:59:17.906Z,99.90
2023-05-19T19:01:45.652Z,99.90
2023-05-19T19:04:15.055Z,99.90
2023-05-19T19:06:43.847Z,99.90
2023-05-19T19:09:11.549Z,99.90
2023-05-19T19:11:39.182Z,99.90
2023-05-19T19:14:10.626Z,99.90
2023-05-19T19:16:40.592Z,99.90
2023-05-19T19:19:08.212Z,99.90
2023-05-19T19:21:36.063Z,99.90
2023-05-19T19:24:03.607Z,99.90
2023-05-19T19:26:31.226Z,99.90
2023-05-19T19:28:59.216Z,99.90
2023-05-19T19:31:30.018Z,99.90
2023-05-19T19:34:03.975Z,99.90
2023-05-19T19:36:32.220Z,99.90
2023-05-19T19:39:00.259Z,99.90
2023-05-19T19:41:30.080Z,99.90
2023-05-19T19:44:01.044Z,99.90
2023-05-19T19:46:29.393Z,99.90
2023-05-19T19:48:59.319Z,99.90
2023-05-19T19:51:27.913Z,99.90
2023-05-19T19:53:55.757Z,99.90
2023-05-19T19:56:25.645Z,99.90
2023-05-19T19:58:55.230Z,99.90
2023-05-19T20:01:27.897Z,99.90
2023-05-19T20:03:57.411Z,99.90
2023-05-19T20:06:26.206Z,99.90
2023-05-19T20:08:54.056Z,99.90
2023-05-19T20:11:24.108Z,99.90
2023-05-19T20:13:52.773Z,99.90
2023-05-19T20:16:20.376Z,99.90
2023-05-19T20:18:48.753Z,99.90
2023-05-19T20:21:17.508Z,99.90
2023-05-19T20:23:45.551Z,99.90
2023-05-19T20:26:13.649Z,99.90
2023-05-19T20:28:41.909Z,99.90
2023-05-19T20:31:09.601Z,99.90
2023-05-19T20:33:37.205Z,99.90
2023-05-19T20:36:06.890Z,99.90
2023-05-19T20:38:34.516Z,99.90
2023-05-19T20:41:02.315Z,99.90
2023-05-19T20:43:29.814Z,99.90
2023-05-19T20:45:57.379Z,99.90
2023-05-19T20:48:25.116Z,99.90
2023-05-19T20:50:53.961Z,99.90
2023-05-19T20:53:22.261Z,99.90
2023-05-19T20:55:49.909Z,99.90
2023-05-19T20:58:17.365Z,99.90
2023-05-19T21:00:44.976Z,99.90
2023-05-19T21:03:12.525Z,99.90
2023-05-19T21:05:40.187Z,99.90
2023-05-19T21:08:12.974Z,99.90
2023-05-19T21:10:41.135Z,99.90
2023-05-19T21:13:08.691Z,99.90
2023-05-19T21:15:36.219Z,99.90
2023-05-19T21:18:03.741Z,99.90
2023-05-19T21:20:31.516Z,99.90
2023-05-19T21:22:59.258Z,99.90
2023-05-19T21:25:26.885Z,99.90
2023-05-19T21:27:55.664Z,99.90
2023-05-19T21:30:23.851Z,99.90
2023-05-19T21:32:51.643Z,99.90
2023-05-19T21:35:19.286Z,99.90
2023-05-19T21:37:46.875Z,99.90
2023-05-19T21:40:14.536Z,99.90
2023-05-19T21:42:42.141Z,99.90
2023-05-19T21:45:10.121Z,99.90
2023-05-19T21:47:37.607Z,99.90
2023-05-19T21:50:05.722Z,99.90
2023-05-19T21:52:33.261Z,99.90
2023-05-19T21:55:00.842Z,99.90
2023-05-19T21:57:28.268Z,99.90
2023-05-19T21:59:55.709Z,99.90
2023-05-19T22:02:25.712Z,99.90
2023-05-19T22:04:53.134Z,99.90
2023-05-19T22:07:29.830Z,99.90
2023-05-19T22:09:57.314Z,99.90
2023-05-19T22:12:24.983Z,99.90
2023-05-19T22:14:52.464Z,99.90
2023-05-19T22:17:20.022Z,99.90
2023-05-19T22:19:47.536Z,99.90
2023-05-19T22:22:15.197Z,99.90
2023-05-19T22:24:42.732Z,99.90
2023-05-19T22:27:10.400Z,99.90
2023-05-19T22:29:39.034Z,99.90
2023-05-19T22:32:12.307Z,99.90
2023-05-19T22:34:40.093Z,99.90
2023-05-19T22:37:07.714Z,99.90
2023-05-19T22:39:35.259Z,99.90
2023-05-19T22:42:02.975Z,99.90
2023-05-19T22:44:30.916Z,99.90
2023-05-19T22:46:58.359Z,99.90
2023-05-19T22:49:27.551Z,99.90
2023-05-19T22:51:55.024Z,99.90
2023-05-19T22:54:22.464Z,99.90
2023-05-19T22:56:50.029Z,99.90
2023-05-19T22:59:18.167Z,99.90
2023-05-19T23:01:47.001Z,99.90
2023-05-19T23:04:14.708Z,99.90
2023-05-19T23:06:42.434Z,99.90
2023-05-19T23:09:10.083Z,99.90
2023-05-19T23:11:37.518Z,99.90
2023-05-19T23:14:05.087Z,99.90
2023-05-19T23:16:32.554Z,99.90
2023-05-19T23:19:00.033Z,99.90
2023-05-19T23:21:27.438Z,99.90
2023-05-19T23:23:56.148Z,99.90
2023-05-19T23:26:23.729Z,99.90
2023-05-19T23:28:51.307Z,99.90
2023-05-19T23:31:18.848Z,99.90
2023-05-19T23:33:46.467Z,99.90
2023-05-19T23:36:16.398Z,99.90
2023-05-19T23:38:43.901Z,99.90
2023-05-19T23:41:11.486Z,99.90
2023-05-19T23:43:41.547Z,99.90
2023-05-19T23:46:09.158Z,99.90
2023-05-19T23:48:36.873Z,99.90
2023-05-19T23:51:04.473Z,99.90
2023-05-19T23:53:31.937Z,99.90
2023-05-19T23:55:59.435Z,99.90
2023-05-19T23:58:26.829Z,99.90
